Time;durP1;ratioP1;P1;durP2;ratioP2;P2;SDS_P1;SDS_P2;PMS_P1;PMS_P2;Temp;Humidity;BMP_temperature;BMP_pressure;BME280_temperature;BME280_humidity;BME280_pressure;Samples;Min_cycle;Max_cycle;Signal;HPM_P1;HPM_P2
2021/05/11 00:00:23;;;;;;;7.18;0.88;;;;;;;19.98;34.94;100479.63;5061423;28;20394;-80
2021/05/11 00:03:08;;;;;;;6.22;0.90;;;;;;;19.98;34.65;100482.38;5090492;28;20047;-80
2021/05/11 00:05:53;;;;;;;;;;;;;;;20.03;34.10;100484.78;5098186;28;20055;-80
2021/05/11 00:08:38;;;;;;;2.22;0.80;;;;;;;20.07;34.70;100478.09;5109942;28;19912;-81
2021/05/11 00:11:23;;;;;;;2.55;0.80;;;;;;;20.01;36.33;100473.34;5078847;28;20052;-81
2021/05/11 00:14:27;;;;;;;2.90;1.42;;;;;;;20.00;34.67;100460.72;5097663;28;20590;-82
2021/05/11 00:17:12;;;;;;;6.63;1.40;;;;;;;19.87;35.35;100451.16;5100828;28;20063;-81
2021/05/11 00:19:59;;;;;;;2.47;1.05;;;;;;;19.82;35.91;100457.03;5086339;28;20527;-81
2021/05/11 00:22:45;;;;;;;3.60;0.93;;;;;;;19.88;36.00;100458.25;5086480;28;20051;-81
2021/05/11 00:25:30;;;;;;;8.35;1.30;;;;;;;19.74;36.02;100456.22;5101370;28;20059;-80
2021/05/11 00:28:16;;;;;;;7.00;0.75;;;;;;;19.78;35.14;100459.78;5099328;28;20518;-80
2021/05/11 00:31:01;;;;;;;3.85;1.30;;;;;;;19.79;34.95;100464.13;5076883;28;20063;-81
2021/05/11 00:33:46;;;;;;;2.80;0.90;;;;;;;19.57;35.31;100460.41;5085639;22;20444;-78
2021/05/11 00:36:31;;;;;;;3.25;0.90;;;;;;;19.65;35.97;100461.28;5053732;28;21339;-78
2021/05/11 00:39:16;;;;;;;1.40;0.70;;;;;;;19.67;35.25;100458.91;5038733;28;20533;-76
2021/05/11 00:42:01;;;;;;;1.65;0.77;;;;;;;19.61;35.67;100447.44;5038765;28;20052;-79
2021/05/11 00:45:06;;;;;;;2.50;1.13;;;;;;;19.54;37.47;100424.53;5036841;28;20056;-78
2021/05/11 00:47:50;;;;;;;4.00;1.35;;;;;;;19.59;36.61;100408.41;5040062;28;20064;-78
2021/05/11 00:50:36;;;;;;;2.40;0.98;;;;;;;19.55;36.64;100406.81;5053736;28;20067;-78
2021/05/11 00:53:21;;;;;;;3.03;0.95;;;;;;;19.50;37.20;100416.25;5054699;28;20048;-77
2021/05/11 00:56:07;;;;;;;;;;;;;;;19.48;36.41;100424.09;5059049;28;20067;-77
2021/05/11 00:58:53;;;;;;;3.65;1.02;;;;;;;19.40;36.85;100427.16;5055759;28;19913;-77
2021/05/11 01:01:37;;;;;;;3.70;0.95;;;;;;;19.43;37.15;100434.66;5054847;28;20048;-77
2021/05/11 01:04:24;;;;;;;4.32;1.20;;;;;;;19.41;37.25;100435.03;5055271;28;20044;-77
2021/05/11 01:07:10;;;;;;;2.25;1.20;;;;;;;19.42;37.46;100431.09;5057749;28;20052;-77
2021/05/11 01:09:57;;;;;;;5.57;1.45;;;;;;;19.34;36.20;100425.91;5055112;28;20052;-77
2021/05/11 01:12:41;;;;;;;2.45;1.17;;;;;;;19.40;37.26;100422.41;5060643;28;20059;-78
2021/05/11 01:15:26;;;;;;;;;;;;;;;19.43;36.96;100418.09;5061820;28;20516;-78
2021/05/11 01:18:15;;;;;;;3.17;1.10;;;;;;;19.47;37.30;100410.66;5056026;28;20304;-78
2021/05/11 01:24:11;;;;;;;1.90;1.15;;;;;;;19.39;37.39;100400.75;5045584;28;20063;-77
2021/05/11 01:27:22;;;;;;;1.48;0.88;;;;;;;19.34;37.54;100385.34;5057813;28;20401;-77
2021/05/11 01:30:31;;;;;;;5.45;1.20;;;;;;;19.39;38.11;100382.22;5059683;28;20093;-79
2021/05/11 01:57:36;;;;;;;3.00;1.48;;;;;;;19.10;40.34;100424.50;5040638;28;20045;-77
2021/05/11 02:26:00;;;;;;;3.25;1.00;;;;;;;19.28;41.45;100397.91;5013809;28;20068;-76
2021/05/11 02:28:45;;;;;;;7.00;2.15;;;;;;;19.27;40.91;100390.78;5018642;28;20048;-77
2021/05/11 02:31:30;;;;;;;7.40;1.08;;;;;;;19.40;40.93;100389.31;5054678;28;20520;-77
2021/05/11 02:34:15;;;;;;;5.90;0.77;;;;;;;19.42;40.72;100388.94;5059231;28;20060;-80
2021/05/11 02:37:18;;;;;;;;;;;;;;;19.46;40.54;100398.06;5057603;28;20069;-77
2021/05/11 02:40:06;;;;;;;4.80;1.15;;;;;;;19.33;40.83;100391.22;5059837;28;19912;-78
2021/05/11 02:42:57;;;;;;;6.15;1.00;;;;;;;19.46;41.37;100396.09;5041965;28;20041;-75
2021/05/11 02:45:42;;;;;;;1.35;0.82;;;;;;;19.56;41.53;100392.63;5036807;28;20056;-76
2021/05/11 02:48:27;;;;;;;1.15;0.50;;;;;;;19.57;41.32;100393.41;5057947;28;20056;-75
2021/05/11 02:51:30;;;;;;;3.95;1.10;;;;;;;19.59;40.46;100397.38;5035623;28;20044;-75
2021/05/11 02:54:34;;;;;;;1.08;0.80;;;;;;;19.56;41.89;100394.56;5042637;28;20071;-75
2021/05/11 02:57:38;;;;;;;4.07;0.90;;;;;;;19.55;41.39;100396.56;5053991;28;20047;-75
2021/05/11 03:00:23;;;;;;;;;;;;;;;19.58;42.55;100393.03;5054425;28;20064;-75
2021/05/11 03:03:08;;;;;;;2.38;0.60;;;;;;;19.57;40.20;100388.69;5047704;28;19917;-74
2021/05/11 03:05:54;;;;;;;4.85;1.02;;;;;;;19.57;41.72;100405.22;5036272;28;20056;-76
2021/05/11 03:08:42;;;;;;;;;;;;;;;19.55;40.91;100412.31;5040291;28;20048;-75
2021/05/11 03:11:27;;;;;;;2.30;1.10;;;;;;;19.53;41.60;100407.19;5058708;28;19917;-75
2021/05/11 03:14:12;;;;;;;4.60;1.90;;;;;;;19.55;41.06;100401.28;5038746;28;20056;-75
2021/05/11 03:16:57;;;;;;;2.33;0.80;;;;;;;19.63;42.26;100400.94;5035083;28;20048;-76
2021/05/11 03:19:43;;;;;;;2.72;0.95;;;;;;;19.59;41.74;100407.63;5041013;28;20124;-77
2021/05/11 03:22:27;;;;;;;;;;;;;;;19.58;41.66;100412.34;5057876;28;20047;-76
2021/05/11 03:25:13;;;;;;;3.20;0.93;;;;;;;19.49;42.31;100413.84;5035261;28;19917;-76
2021/05/11 03:27:59;;;;;;;;;;;;;;;19.59;42.37;100424.97;5040110;28;20044;-77
2021/05/11 03:30:44;;;;;;;5.07;1.10;;;;;;;19.61;42.00;100430.88;5054802;28;19916;-75
2021/05/11 03:33:30;;;;;;;3.75;0.82;;;;;;;19.59;42.87;100430.47;5053721;28;20044;-75
2021/05/11 03:36:15;;;;;;;0.93;0.50;;;;;;;19.55;42.32;100421.41;5059054;28;20401;-76
2021/05/11 03:39:04;;;;;;;3.75;0.77;;;;;;;19.58;42.11;100423.38;5040990;28;20539;-75
2021/05/11 03:42:18;;;;;;;5.60;1.02;;;;;;;19.54;42.21;100419.81;5054666;28;20052;-76
2021/05/11 03:45:05;;;;;;;5.05;0.98;;;;;;;19.59;41.83;100427.72;5055288;28;20048;-75
2021/05/11 03:47:54;;;;;;;2.47;1.00;;;;;;;19.53;41.96;100437.53;5043361;28;20409;-76
2021/05/11 03:53:43;;;;;;;2.90;1.33;;;;;;;19.38;43.10;100446.81;5056702;28;20048;-77
2021/05/11 03:56:29;;;;;;;3.08;1.13;;;;;;;19.38;42.04;100457.84;5056267;28;20412;-77
2021/05/11 03:59:14;;;;;;;;;;;;;;;19.38;41.58;100473.59;5057773;28;20405;-77
2021/05/11 04:01:59;;;;;;;5.78;1.13;;;;;;;19.21;43.52;100484.09;5056599;28;19917;-77
2021/05/11 04:04:44;;;;;;;4.47;1.10;;;;;;;19.09;43.85;100505.63;5053443;28;20047;-78
2021/05/11 04:07:51;;;;;;;1.52;1.02;;;;;;;19.02;44.01;100513.81;5058544;28;20412;-78
2021/05/11 04:10:45;;;;;;;6.45;1.10;;;;;;;19.01;45.34;100514.97;5054602;28;20040;-77
2021/05/11 04:16:52;;;;;;;11.00;1.52;;;;;;;18.84;46.67;100523.84;5056604;28;20052;-76
2021/05/11 04:19:36;;;;;;;4.30;1.25;;;;;;;18.71;48.14;100518.56;5052425;28;20471;-76
2021/05/11 04:25:25;;;;;;;6.80;1.50;;;;;;;18.70;50.16;100510.66;5054409;28;20384;-76
2021/05/11 04:28:10;;;;;;;;;;;;;;;18.66;51.37;100505.13;5053283;28;20424;-76
2021/05/11 04:30:54;;;;;;;3.30;1.02;;;;;;;18.54;51.23;100512.84;5057099;28;19920;-78
2021/05/11 04:33:59;;;;;;;14.43;2.30;;;;;;;18.30;52.30;100508.53;5055727;28;20516;-76
2021/05/11 04:40:07;;;;;;;2.00;1.35;;;;;;;18.24;53.00;100507.28;5044265;28;20523;-76
2021/05/11 04:42:52;;;;;;;4.72;1.52;;;;;;;18.56;50.42;100485.72;5040723;28;20048;-77
2021/05/11 04:46:12;;;;;;;;;;;;;;;18.83;50.17;100456.13;5053681;28;20056;-77
2021/05/11 04:48:58;;;;;;;2.85;0.95;;;;;;;18.94;49.87;100476.34;5051693;28;19913;-76
2021/05/11 04:51:43;;;;;;;3.88;1.40;;;;;;;18.85;50.13;100482.13;5054894;28;20052;-78
2021/05/11 04:54:27;;;;;;;;;;;;;;;18.82;50.89;100463.59;5053314;28;20043;-76
2021/05/11 04:57:31;;;;;;;2.22;0.90;;;;;;;19.17;49.76;100447.44;5039957;28;19913;-75
2021/05/11 05:00:36;;;;;;;4.13;1.20;;;;;;;19.17;50.24;100452.94;5035245;28;20052;-76
2021/05/11 05:03:26;;;;;;;3.55;1.30;;;;;;;19.22;50.29;100447.06;5051989;28;20047;-77
2021/05/11 05:06:11;;;;;;;13.57;1.55;;;;;;;19.18;50.64;100453.72;5055032;28;20048;-76
2021/05/11 05:08:56;;;;;;;;;;;;;;;19.15;51.93;100484.78;5034808;28;20056;-76
2021/05/11 05:11:41;;;;;;;4.57;1.50;;;;;;;19.11;52.16;100501.31;5038420;28;19916;-76
2021/05/11 05:14:26;;;;;;;8.50;1.48;;;;;;;18.82;53.08;100482.88;5047326;28;20044;-77
2021/05/11 05:17:11;;;;;;;3.08;1.50;;;;;;;18.91;52.37;100477.88;5034797;28;20057;-76
2021/05/11 05:19:56;;;;;;;3.47;1.65;;;;;;;18.80;54.47;100488.75;5035148;28;20056;-77
2021/05/11 05:22:42;;;;;;;2.65;1.73;;;;;;;18.63;54.86;100483.06;5045140;28;20511;-75
2021/05/11 05:25:28;;;;;;;3.92;2.08;;;;;;;18.78;53.93;100474.59;5035912;28;20048;-76
2021/05/11 05:28:13;;;;;;;4.25;1.35;;;;;;;18.99;53.16;100462.22;5035788;28;20044;-75
2021/05/11 05:31:02;;;;;;;12.18;1.52;;;;;;;19.19;52.48;100449.81;5052647;28;20048;-77
2021/05/11 05:36:50;;;;;;;4.72;1.80;;;;;;;19.47;52.17;100438.25;5049551;28;20401;-77
2021/05/11 05:39:44;;;;;;;11.38;2.00;;;;;;;19.51;52.50;100401.25;5055480;28;20051;-78
2021/05/11 05:45:34;;;;;;;2.15;1.40;;;;;;;19.46;53.64;100367.72;5051156;28;20052;-75
2021/05/11 05:51:24;;;;;;;2.00;1.50;;;;;;;19.25;54.68;100371.06;5055253;28;20053;-76
2021/05/11 05:54:09;;;;;;;3.35;1.38;;;;;;;19.36;54.33;100368.41;5056799;28;20540;-75
2021/05/11 05:56:54;;;;;;;4.65;1.63;;;;;;;19.36;54.40;100363.69;5057859;28;20068;-75
2021/05/11 05:59:41;;;;;;;;;;;;;;;19.40;54.36;100366.47;5055917;28;20456;-76
2021/05/11 06:02:27;;;;;;;3.47;1.42;;;;;;;19.36;54.51;100371.16;5044377;28;20377;-76
2021/05/11 06:05:13;;;;;;;6.93;2.33;;;;;;;19.33;54.03;100385.72;5057962;28;20052;-75
2021/05/11 06:07:59;;;;;;;3.88;1.58;;;;;;;19.38;54.21;100394.44;5055438;28;20091;-75
2021/05/11 06:11:16;;;;;;;;;;;;;;;19.35;54.62;100406.22;5059936;28;20504;-76
2021/05/11 06:19:55;;;;;;;6.30;1.50;;;;;;;18.05;60.60;100455.09;5057276;28;20409;-77
2021/05/11 06:22:40;;;;;;;6.30;1.70;;;;;;;17.52;61.94;100455.84;5055745;28;20064;-76
2021/05/11 06:25:25;;;;;;;2.17;1.33;;;;;;;17.59;61.89;100462.63;5059488;28;20151;-78
2021/05/11 06:28:11;;;;;;;;;;;;;;;17.15;63.51;100471.31;5057807;28;20052;-77
2021/05/11 06:30:56;;;;;;;;;;;;;;;16.80;65.47;100474.19;5055601;28;19913;-76
2021/05/11 06:36:44;;;;;;;4.95;2.60;;;;;;;16.70;69.01;100479.47;5056579;28;20067;-75
2021/05/11 06:39:29;;;;;;;7.60;2.67;;;;;;;16.36;71.46;100484.63;5071657;22;20421;-77
2021/05/11 06:48:22;;;;;;;4.82;3.13;;;;;;;16.30;73.70;100480.59;5058490;28;20051;-78
2021/05/11 06:54:15;;;;;;;6.95;2.40;;;;;;;17.30;66.16;100483.34;5034414;28;20052;-81
2021/05/11 06:57:01;;;;;;;7.65;3.10;;;;;;;17.39;65.71;100476.47;5049655;28;20052;-80
2021/05/11 07:00:06;;;;;;;10.65;2.47;;;;;;;17.41;65.58;100489.84;5031358;28;20052;-81
2021/05/11 07:02:53;;;;;;;4.95;2.63;;;;;;;17.58;64.55;100489.31;5030230;28;20048;-81
2021/05/11 07:05:38;;;;;;;7.60;2.38;;;;;;;17.94;62.76;100491.50;5045146;28;20048;-81
2021/05/11 07:08:35;;;;;;;5.88;2.78;;;;;;;18.16;62.14;100492.63;5048427;28;20060;-80
2021/05/11 07:14:23;;;;;;;8.60;2.28;;;;;;;18.41;61.23;100489.41;5044735;28;20052;-80
2021/05/11 07:17:08;;;;;;;7.00;2.50;;;;;;;18.55;61.07;100497.88;5047324;28;20535;-80
2021/05/11 07:19:53;;;;;;;11.07;3.13;;;;;;;18.21;63.43;100510.78;5048229;28;20519;-81
2021/05/11 07:22:38;;;;;;;8.70;2.53;;;;;;;18.29;62.23;100493.19;5049473;28;20044;-81
2021/05/11 07:25:26;;;;;;;;;;;;;;;18.47;62.13;100496.19;5055968;28;20048;-80
2021/05/11 07:34:54;;;;;;;10.07;4.03;;;;;;;18.57;62.59;100474.34;5063993;28;20044;-82
2021/05/11 07:37:40;;;;;;;8.85;3.35;;;;;;;18.33;62.80;100477.53;5060143;28;20416;-83
2021/05/11 07:40:25;;;;;;;20.00;3.10;;;;;;;18.22;63.32;100462.81;5063163;28;20507;-84
2021/05/11 07:43:11;;;;;;;;;;;;;;;18.25;63.50;100475.84;5062171;28;20503;-82
2021/05/11 08:10:21;;;;;;;5.15;2.00;;;;;;;18.21;62.33;100422.69;5041057;28;20402;-81
2021/05/11 08:16:29;;;;;;;4.55;2.17;;;;;;;18.27;61.71;100404.69;5040315;28;20052;-82
2021/05/11 08:28:17;;;;;;;5.13;1.92;;;;;;;18.48;61.16;100399.44;5040539;28;20540;-81
2021/05/11 08:31:21;;;;;;;;;;;;;;;18.55;60.69;100385.78;5040751;28;20052;-81
2021/05/11 08:34:07;;;;;;;7.10;1.77;;;;;;;18.60;60.31;100384.63;5037077;28;19913;-81
2021/05/11 08:36:52;;;;;;;;;;;;;;;18.66;59.76;100378.41;5041856;28;20057;-81
2021/05/11 08:39:37;;;;;;;6.50;1.90;;;;;;;18.52;59.10;100367.22;5036571;28;19913;-81
2021/05/11 08:42:22;;;;;;;5.10;1.88;;;;;;;18.58;59.77;100370.47;5037693;28;20268;-81
2021/05/11 08:45:11;;;;;;;;;;;;;;;18.51;59.67;100364.84;5026865;28;20040;-82
2021/05/11 08:47:57;;;;;;;2.13;1.30;;;;;;;18.50;59.22;100342.03;5040282;28;19913;-81
2021/05/11 08:51:11;;;;;;;;;;;;;;;18.62;59.53;100335.50;5042081;28;20052;-81
2021/05/11 09:04:36;;;;;;;6.63;1.60;;;;;;;18.48;59.51;100327.06;5036239;28;20048;-81
2021/05/11 09:06:49;;;;;;;4.95;1.58;;;;;;;18.42;59.32;100321.09;5047073;28;20052;-81
2021/05/11 09:26:01;;;;;;;4.30;1.20;;;;;;;18.39;60.31;100297.06;5036074;28;20049;-81
2021/05/11 09:28:49;;;;;;;3.92;1.42;;;;;;;18.41;60.71;100297.47;5039735;28;20548;-81
2021/05/11 09:34:54;;;;;;;5.85;1.38;;;;;;;18.48;60.29;100299.53;5037197;28;20418;-82
2021/05/11 10:44:57;;;;;;;2.78;1.20;;;;;;;18.76;60.82;100256.53;5042720;28;20045;-79
2021/05/11 10:48:11;;;;;;;6.55;1.50;;;;;;;18.84;60.59;100253.84;5027464;28;20056;-79
2021/05/11 10:50:57;;;;;;;6.05;1.55;;;;;;;18.72;61.39;100244.69;5024018;28;20045;-79
2021/05/11 10:53:46;;;;;;;3.63;1.25;;;;;;;18.69;61.75;100242.69;5040980;28;20117;-79
2021/05/11 10:56:52;;;;;;;4.53;1.58;;;;;;;18.68;61.12;100260.41;5027011;28;20539;-79
2021/05/11 10:59:46;;;;;;;9.68;2.25;;;;;;;18.61;61.43;100273.31;5027812;28;20072;-79
2021/05/11 11:05:36;;;;;;;4.07;1.80;;;;;;;18.59;63.77;100257.16;5038514;28;20642;-80
2021/05/11 11:08:34;;;;;;;4.53;1.53;;;;;;;18.48;63.54;100250.75;5040224;28;20053;-79
2021/05/11 11:11:20;;;;;;;15.13;1.85;;;;;;;18.49;63.21;100251.53;5043663;28;20052;-80
2021/05/11 11:14:06;;;;;;;6.68;1.50;;;;;;;18.47;63.45;100254.66;5041072;28;20052;-81
2021/05/11 11:17:02;;;;;;;5.38;1.80;;;;;;;18.63;62.53;100246.97;5039034;28;20060;-80
2021/05/11 11:20:09;;;;;;;4.55;2.42;;;;;;;18.61;62.85;100248.53;5036938;28;20045;-81
2021/05/11 11:26:26;;;;;;;6.03;2.50;;;;;;;18.65;62.36;100250.13;5027600;28;20049;-81
2021/05/11 11:29:12;;;;;;;5.18;1.90;;;;;;;18.67;62.17;100236.78;5040130;28;20052;-81
2021/05/11 11:35:04;;;;;;;5.95;1.90;;;;;;;18.77;60.80;100235.28;5040843;28;20060;-81
2021/05/11 11:37:50;;;;;;;4.55;1.92;;;;;;;18.80;61.25;100215.22;5039367;28;20043;-80
2021/05/11 11:40:53;;;;;;;4.00;1.80;;;;;;;18.83;60.93;100230.22;5026151;28;20060;-81
2021/05/11 11:43:40;;;;;;;4.35;1.65;;;;;;;18.74;61.33;100234.06;5050783;28;20028;-80
2021/05/11 11:46:29;;;;;;;5.60;1.60;;;;;;;18.70;61.89;100224.19;5037898;28;20052;-79
2021/05/11 11:49:18;;;;;;;2.65;0.85;;;;;;;18.73;60.56;100235.25;5035913;28;20040;-81
2021/05/11 11:52:21;;;;;;;5.30;1.35;;;;;;;18.71;61.01;100226.56;5039355;28;20052;-79
2021/05/11 11:58:32;;;;;;;3.28;1.40;;;;;;;18.83;60.06;100211.72;5037865;28;20056;-80
2021/05/11 12:01:17;;;;;;;;;;;;;;;18.78;60.29;100218.38;5041423;28;20449;-79
2021/05/11 12:04:02;;;;;;;;;;;;;;;18.73;60.75;100218.72;5041366;28;19920;-80
2021/05/11 12:06:50;;;;;;;3.00;1.10;;;;;;;18.61;60.53;100215.47;5039444;28;20296;-80
2021/05/11 12:09:34;;;;;;;4.45;1.80;;;;;;;18.68;60.38;100210.03;5035832;28;20048;-81
2021/05/11 12:12:21;;;;;;;4.03;1.20;;;;;;;18.73;59.71;100213.22;5041171;28;20065;-80
2021/05/11 12:15:15;;;;;;;3.78;1.02;;;;;;;18.57;60.71;100201.69;5037034;28;20052;-80
2021/05/11 12:18:17;;;;;;;14.27;1.45;;;;;;;18.62;60.35;100204.09;5039039;28;20064;-80
2021/05/11 12:21:05;;;;;;;3.58;1.42;;;;;;;18.60;59.55;100192.66;5037425;28;20044;-81
2021/05/11 12:24:08;;;;;;;4.07;1.45;;;;;;;18.55;60.27;100190.25;5023855;28;20037;-80
2021/05/11 12:27:13;;;;;;;5.47;1.70;;;;;;;18.59;60.39;100196.56;5038929;28;20072;-80
2021/05/11 12:30:05;;;;;;;4.70;1.17;;;;;;;18.52;60.59;100196.50;5037336;28;20405;-81
2021/05/11 12:33:19;;;;;;;7.40;1.30;;;;;;;18.47;61.50;100185.84;5023791;28;20048;-81
2021/05/11 12:36:20;;;;;;;4.85;1.20;;;;;;;18.47;62.09;100185.84;5041219;28;20068;-80
2021/05/11 12:39:41;;;;;;;5.75;1.25;;;;;;;18.54;62.10;100183.16;5037326;28;20460;-80
2021/05/11 12:42:26;;;;;;;1.33;1.17;;;;;;;18.62;60.75;100187.56;5040628;28;20040;-79
2021/05/11 12:48:02;;;;;;;6.55;1.30;;;;;;;18.62;59.33;100186.75;5051116;28;20041;-83
2021/05/11 12:53:51;;;;;;;1.63;0.82;;;;;;;18.61;60.10;100188.72;5055204;28;20040;-82
2021/05/11 13:00:14;;;;;;;2.45;1.10;;;;;;;18.50;60.58;100189.78;5051286;28;19916;-81
2021/05/11 13:03:39;;;;;;;4.45;1.17;;;;;;;18.57;60.82;100187.91;5051147;28;20051;-80
2021/05/11 13:16:13;;;;;;;6.20;1.08;;;;;;;18.19;62.95;100166.31;5054062;28;20065;-82
2021/05/11 13:23:04;;;;;;;13.40;1.33;;;;;;;18.33;62.78;100163.69;5052992;28;20521;-82
2021/05/11 13:25:23;;;;;;;4.35;1.95;;;;;;;18.24;62.46;100158.50;5048024;28;20048;-82
2021/05/11 13:28:28;;;;;;;4.18;1.10;;;;;;;18.17;63.11;100158.44;5060473;28;20047;-82
2021/05/11 13:31:28;;;;;;;2.28;0.98;;;;;;;18.15;62.55;100166.28;5055295;28;20113;-83
2021/05/11 13:34:13;;;;;;;3.38;1.10;;;;;;;18.23;62.69;100159.69;5054246;28;20047;-83
2021/05/11 13:40:03;;;;;;;3.00;1.08;;;;;;;18.14;64.38;100161.16;5055874;28;20060;-83
2021/05/11 13:42:48;;;;;;;4.68;1.10;;;;;;;17.96;65.25;100158.25;5053247;28;20052;-83
2021/05/11 13:45:33;;;;;;;;;;;;;;;17.97;65.67;100159.84;5059460;28;20039;-81
2021/05/11 13:48:24;;;;;;;2.00;0.85;;;;;;;18.00;65.86;100155.53;5060484;28;19912;-83
2021/05/11 13:51:18;;;;;;;4.57;1.38;;;;;;;17.79;67.43;100158.84;5051008;28;20048;-83
2021/05/11 13:54:06;;;;;;;3.17;1.10;;;;;;;17.64;67.86;100152.41;5041055;28;20048;-83
2021/05/11 14:03:17;;;;;;;6.22;2.17;;;;;;;17.72;68.00;100148.59;5035587;28;20049;-82
2021/05/11 14:06:01;;;;;;;6.32;1.27;;;;;;;17.70;67.66;100150.13;5044706;28;20064;-82
2021/05/11 14:08:46;;;;;;;;;;;;;;;17.81;66.27;100148.28;5045558;28;20117;-80
2021/05/11 14:11:32;;;;;;;2.40;1.40;;;;;;;17.95;64.72;100143.69;5053921;28;20306;-82
2021/05/11 14:17:21;;;;;;;3.13;1.80;;;;;;;17.87;65.32;100144.00;5059415;28;20044;-83
2021/05/11 14:23:29;;;;;;;5.55;0.93;;;;;;;17.91;64.59;100123.63;5054419;28;20534;-80
2021/05/11 14:26:14;;;;;;;;;;;;;;;18.00;63.55;100125.25;5047054;28;20056;-83
2021/05/11 14:32:41;;;;;;;4.07;0.88;;;;;;;18.06;63.16;100129.25;5051160;28;20043;-83
2021/05/11 14:35:27;;;;;;;6.35;1.52;;;;;;;17.99;63.52;100129.97;5055015;28;20044;-80
2021/05/11 14:38:12;;;;;;;;;;;;;;;17.97;63.99;100121.31;5054080;28;20068;-83
2021/05/11 14:41:02;;;;;;;3.85;1.20;;;;;;;17.99;63.54;100121.72;5049140;28;19913;-82
2021/05/11 14:43:46;;;;;;;3.70;2.25;;;;;;;18.00;63.34;100112.28;5062467;28;20040;-83
2021/05/11 14:46:32;;;;;;;;;;;;;;;18.00;63.76;100108.75;5056633;28;20407;-82
2021/05/11 14:49:17;;;;;;;4.90;1.52;;;;;;;17.95;63.24;100110.69;5060967;28;19913;-82
2021/05/11 14:52:03;;;;;;;3.95;1.25;;;;;;;17.83;63.77;100110.16;5060807;28;20052;-82
2021/05/11 14:54:48;;;;;;;2.22;1.58;;;;;;;17.82;63.95;100103.91;5058992;28;20044;-83
2021/05/11 14:57:33;;;;;;;;;;;;;;;17.82;64.34;100095.66;5034220;28;20044;-83
2021/05/11 15:00:18;;;;;;;3.17;1.50;;;;;;;17.86;63.90;100101.97;5054648;28;19912;-82
2021/05/11 15:03:22;;;;;;;4.78;1.58;;;;;;;17.83;64.85;100099.94;5053197;28;20317;-81
2021/05/11 15:06:26;;;;;;;5.93;1.88;;;;;;;17.93;64.94;100095.72;5050401;28;20048;-82
2021/05/11 15:09:12;;;;;;;5.78;1.30;;;;;;;17.85;64.82;100092.13;5051584;28;20530;-83
2021/05/11 15:11:57;;;;;;;3.25;1.35;;;;;;;17.91;64.96;100095.31;5051180;28;20048;-83
2021/05/11 15:14:42;;;;;;;;;;;;;;;17.85;65.10;100083.88;5049636;28;20047;-82
2021/05/11 15:20:33;;;;;;;6.25;3.10;;;;;;;18.01;64.84;100086.38;5053241;28;20064;-83
2021/05/11 15:23:18;;;;;;;5.28;2.03;;;;;;;17.90;64.38;100094.53;5048802;28;20059;-82
2021/05/11 15:26:03;;;;;;;4.95;1.80;;;;;;;17.86;65.42;100082.72;5053050;28;20048;-82
2021/05/11 15:28:49;;;;;;;3.40;1.63;;;;;;;17.80;64.84;100083.44;5048519;28;20047;-83
2021/05/11 15:31:34;;;;;;;;;;;;;;;17.77;64.95;100079.47;5054936;28;20044;-82
2021/05/11 15:34:19;;;;;;;3.83;1.88;;;;;;;17.72;66.44;100077.09;5053366;28;20382;-83
2021/05/11 15:37:22;;;;;;;4.18;1.50;;;;;;;17.67;65.77;100080.19;5050206;28;20407;-82
2021/05/11 15:40:10;;;;;;;5.15;1.70;;;;;;;17.59;65.83;100073.00;5048381;28;20055;-82
2021/05/11 15:42:56;;;;;;;3.30;1.98;;;;;;;17.61;66.29;100065.19;5045378;28;20068;-83
2021/05/11 15:45:41;;;;;;;4.50;2.33;;;;;;;17.70;66.48;100073.13;5046602;28;20510;-82
2021/05/11 15:48:26;;;;;;;5.13;2.22;;;;;;;17.69;66.18;100069.56;5053907;28;20103;-83
2021/05/11 15:51:11;;;;;;;4.15;1.92;;;;;;;17.65;66.77;100065.22;5052046;28;20040;-83
2021/05/11 15:53:56;;;;;;;;;;;;;;;17.70;66.72;100073.13;5048393;28;20052;-82
2021/05/11 15:59:44;;;;;;;9.63;2.58;;;;;;;17.61;67.20;100062.44;5049829;28;20044;-81
2021/05/11 16:02:29;;;;;;;6.43;2.47;;;;;;;17.60;68.32;100063.59;5049033;28;20048;-82
2021/05/11 16:05:35;;;;;;;3.42;1.90;;;;;;;17.50;68.54;100059.53;5048184;28;20399;-82
2021/05/11 16:08:20;;;;;;;4.45;2.28;;;;;;;17.60;67.57;100049.84;5049715;28;20052;-83
2021/05/11 16:11:05;;;;;;;;;;;;;;;17.64;67.49;100053.41;5049204;28;20056;-83
2021/05/11 16:16:53;;;;;;;4.55;2.53;;;;;;;17.73;67.82;100034.63;5049780;28;20526;-83
2021/05/11 16:19:39;;;;;;;7.32;2.60;;;;;;;17.78;67.17;100034.28;5054815;28;20069;-82
2021/05/11 16:22:24;;;;;;;5.53;2.22;;;;;;;17.83;68.31;100027.63;5051500;28;20399;-82
2021/05/11 16:25:11;;;;;;;3.63;2.38;;;;;;;17.87;66.92;100033.97;5051540;28;20052;-83
2021/05/11 16:27:56;;;;;;;6.35;2.22;;;;;;;17.84;66.84;100032.78;5045717;28;20064;-82
2021/05/11 16:30:41;;;;;;;;;;;;;;;17.82;67.18;100026.88;5052223;28;20040;-82
2021/05/11 16:36:33;;;;;;;5.47;2.35;;;;;;;17.64;67.77;100020.41;5056745;28;20044;-82
2021/05/11 16:39:18;;;;;;;5.43;2.47;;;;;;;17.62;68.19;100021.97;5055745;28;20048;-82
2021/05/11 16:42:04;;;;;;;3.75;2.17;;;;;;;17.65;68.55;100015.72;5053814;28;20044;-82
2021/05/11 16:44:49;;;;;;;6.18;3.25;;;;;;;17.62;68.69;100013.72;5058928;28;20043;-82
2021/05/11 16:47:56;;;;;;;;;;;;;;;17.62;68.74;100020.03;5041269;28;20056;-83
2021/05/11 16:51:01;;;;;;;4.57;2.60;;;;;;;16.84;76.12;100043.09;5053392;28;19912;-82
2021/05/11 16:53:46;;;;;;;5.97;3.20;;;;;;;16.51;79.42;100035.56;5057433;28;20657;-83
2021/05/11 16:56:31;;;;;;;5.53;3.67;;;;;;;16.44;78.18;100032.72;5052083;28;20051;-82
2021/05/11 16:59:18;;;;;;;5.55;3.10;;;;;;;16.36;78.96;100047.50;5054305;28;20047;-82
2021/05/11 17:02:03;;;;;;;7.15;3.25;;;;;;;16.41;77.76;100049.91;5052933;28;20051;-82
2021/05/11 17:04:48;;;;;;;;;;;;;;;16.35;77.66;100054.16;5056639;28;20047;-82
2021/05/11 17:07:33;;;;;;;3.33;2.78;;;;;;;16.29;77.06;100055.66;5060572;28;19916;-81
2021/05/11 17:10:19;;;;;;;12.75;2.28;;;;;;;16.18;77.08;100052.72;5054456;28;20032;-82
2021/05/11 17:13:23;;;;;;;5.90;2.13;;;;;;;16.26;77.12;100057.94;5052076;28;20518;-81
2021/05/11 17:16:10;;;;;;;4.03;2.40;;;;;;;16.22;77.05;100051.63;5057085;28;20049;-82
2021/05/11 17:18:55;;;;;;;8.10;1.90;;;;;;;16.45;76.04;100043.34;5041204;28;20052;-82
2021/05/11 17:21:40;;;;;;;2.97;1.73;;;;;;;16.41;75.95;100052.66;5052856;28;20044;-83
2021/05/11 17:24:25;;;;;;;;;;;;;;;16.41;76.26;100058.16;5057214;28;20048;-81
2021/05/11 17:27:11;;;;;;;3.25;0.93;;;;;;;16.27;76.44;100058.75;5056631;28;19917;-83
2021/05/11 17:29:57;;;;;;;4.43;1.27;;;;;;;16.30;76.76;100057.22;5054715;28;20048;-82
2021/05/11 17:32:44;;;;;;;2.28;1.23;;;;;;;16.30;76.83;100049.00;5056906;28;20411;-82
2021/05/11 17:35:30;;;;;;;4.10;1.40;;;;;;;16.13;77.24;100050.31;5055000;28;20415;-83
2021/05/11 17:41:37;;;;;;;2.30;1.30;;;;;;;16.10;77.88;100062.78;5055273;28;19913;-83
2021/05/11 17:44:22;;;;;;;2.85;1.27;;;;;;;16.14;77.33;100055.44;5056605;28;20044;-81
2021/05/11 17:47:25;;;;;;;2.15;1.48;;;;;;;16.29;76.82;100050.16;5055472;28;20521;-82
2021/05/11 17:50:11;;;;;;;1.92;1.20;;;;;;;16.24;76.88;100051.25;5060333;28;20044;-82
2021/05/11 17:52:58;;;;;;;1.67;1.20;;;;;;;16.16;77.22;100055.03;5057721;28;20651;-82
2021/05/11 17:55:43;;;;;;;3.28;1.50;;;;;;;16.17;77.25;100053.88;5061030;28;20056;-82
2021/05/11 17:58:28;;;;;;;;;;;;;;;16.29;76.78;100052.91;5043771;28;20040;-82
2021/05/11 18:01:32;;;;;;;7.82;1.70;;;;;;;16.28;76.70;100057.59;5057693;28;19912;-83
2021/05/11 18:04:17;;;;;;;2.53;1.65;;;;;;;16.07;77.94;100055.31;5061455;28;20052;-82
2021/05/11 18:07:22;;;;;;;3.95;2.13;;;;;;;16.29;76.67;100061.13;5057183;28;20064;-82
2021/05/11 18:10:08;;;;;;;4.22;1.60;;;;;;;16.31;76.56;100065.06;5060278;28;20048;-82
2021/05/11 18:15:58;;;;;;;6.80;2.10;;;;;;;16.13;77.15;100059.34;5060263;28;20052;-83
2021/05/11 18:18:43;;;;;;;3.75;1.95;;;;;;;16.12;76.86;100063.22;5061664;28;20047;-82
2021/05/11 18:21:29;;;;;;;5.38;1.80;;;;;;;16.24;76.84;100059.50;5057632;28;20044;-82
2021/05/11 18:24:32;;;;;;;2.67;1.77;;;;;;;15.99;77.86;100070.09;5056064;28;20040;-82
2021/05/11 18:27:20;;;;;;;2.83;1.80;;;;;;;16.14;77.66;100065.63;5060130;28;20044;-82